Lancaster, NH

2:50 PM EST on December 26, 2014 (GMT -0500)
APRSWXNET Lower Waterford VT US | Change Station
CLOSE
Current Station
Personal Weather Station
Location: Lower Waterford, VT
Elevation: 807 ft
Nearby Weather Stations

Elev 807 ft 44.35 °N, 71.91 °W | Updated 47 minutes ago

Overcast
Overcast
44 °F
Feels Like 44 °F
N
1
Wind Variable Wind from WSW
Gusts 0.0 mph

Today
High -- | Low -- °F
--% Chance of Precip.
Yesterday
High -- | Low -- °F
Precip. -- in
7:21 AM 4:12 PM
Waxing Crescent, 28% visible
Pressure 30.08 in
Visibility 10.0 miles
Clouds Overcast 3800 ft
Windchill 44 °F
Dew Point 31 °F
Humidity 60%
Rainfall -999.00 in
Snow Depth Not available.
UV 0 out of 12
Pollen .10 out of 12
Air Quality Not available.
Flu Activity Not available.
METAR KHIE 261852Z AUTO 26010KT 10SM OVC038 05/M03 A3004 RMK AO2 SLP184 T00501028

More Conditions Fewer Conditions

Pressure 30.08 in
Visibility 10.0 miles
Clouds Overcast 3800 ft
Windchill 44 °F
Dew Point 31 °F
Humidity 60%
Rainfall -999.00 in
Snow Depth Not available.
UV 0 out of 12
Pollen .10 out of 12
Air Quality Not available.
Flu Activity Not available.
METAR KHIE 261852Z AUTO 26010KT 10SM OVC038 05/M03 A3004 RMK AO2 SLP184 T00501028

More Conditions Fewer Conditions

10-Day Weather Forecast

Almanac

Astronomy

Dec. 26, 2014 Rise Set
Actual Time
Civil Twilight
Nautical Twilight
Astronomical Twilight
Moon
Length of Visible Light
Length of Day
Tomorrow will be .
, % of the Moon is Illuminated

Today's Extremes

State Highs State Lows

Community

WunderPhotos

Upload Photos

1,780,680 photos uploaded!

WunderBlogs® & News

Nearby

Air Quality

  Air Quality AQ Index Pollutant
Not available.

Snow Depth

Station Depth Elevation

Earthquake Activity

City Distance Mag. Time & Date
Minimum magnitude displayed is 2.5.

Coastal Water Temperatures

Place Temperature

Nearby Weather Stations